sensor_id;sensor_type;location;lat;lon;timestamp;pressure;altitude;pressure_sealevel;temperature;humidity
13765;BME280;6953;48.810;9.204;2023-04-04T00:00:11;99624.22;;;1.97;71.43
13765;BME280;6953;48.810;9.204;2023-04-04T00:02:37;99607.06;;;1.79;72.29
13765;BME280;6953;48.810;9.204;2023-04-04T00:05:04;99629.41;;;1.92;72.80
13765;BME280;6953;48.810;9.204;2023-04-04T00:07:30;99606.22;;;1.73;72.89
13765;BME280;6953;48.810;9.204;2023-04-04T00:09:55;99618.28;;;1.72;73.04
13765;BME280;6953;48.810;9.204;2023-04-04T00:12:20;99319.09;;;-0.03;72.93
13765;BME280;6953;48.810;9.204;2023-04-04T00:14:47;99622.63;;;1.61;73.56
13765;BME280;6953;48.810;9.204;2023-04-04T00:17:12;99467.81;;;0.67;73.68
13765;BME280;6953;48.810;9.204;2023-04-04T00:19:37;99659.69;;;1.57;74.41
13765;BME280;6953;48.810;9.204;2023-04-04T00:22:03;99631.22;;;1.56;74.20
13765;BME280;6953;48.810;9.204;2023-04-04T00:24:28;99620.91;;;1.48;75.40
13765;BME280;6953;48.810;9.204;2023-04-04T00:26:54;99605.44;;;1.41;76.05
13765;BME280;6953;48.810;9.204;2023-04-04T00:29:20;99640.75;;;1.51;76.33
13765;BME280;6953;48.810;9.204;2023-04-04T00:31:45;99619.22;;;1.49;76.19
13765;BME280;6953;48.810;9.204;2023-04-04T00:34:10;99623.53;;;1.47;76.27
13765;BME280;6953;48.810;9.204;2023-04-04T00:36:36;99617.47;;;1.43;76.11
13765;BME280;6953;48.810;9.204;2023-04-04T00:39:02;99612.31;;;1.39;76.60
13765;BME280;6953;48.810;9.204;2023-04-04T00:41:27;99601.13;;;1.29;76.83
13765;BME280;6953;48.810;9.204;2023-04-04T00:43:54;99598.56;;;1.29;76.96
13765;BME280;6953;48.810;9.204;2023-04-04T00:46:19;99595.97;;;1.23;77.27
13765;BME280;6953;48.810;9.204;2023-04-04T00:48:46;99519.44;;;0.75;77.37
13765;BME280;6953;48.810;9.204;2023-04-04T00:51:12;99582.22;;;1.02;77.94
13765;BME280;6953;48.810;9.204;2023-04-04T00:53:37;99610.66;;;1.11;78.14
13765;BME280;6953;48.810;9.204;2023-04-04T00:56:03;99614.09;;;1.04;78.75
13765;BME280;6953;48.810;9.204;2023-04-04T00:58:28;99504.81;;;0.50;79.12
13765;BME280;6953;48.810;9.204;2023-04-04T01:00:54;99581.38;;;0.94;79.67
13765;BME280;6953;48.810;9.204;2023-04-04T01:03:20;99598.59;;;1.04;79.41
13765;BME280;6953;48.810;9.204;2023-04-04T01:05:45;99591.72;;;0.96;79.90
13765;BME280;6953;48.810;9.204;2023-04-04T01:08:12;99577.97;;;0.71;80.09
13765;BME280;6953;48.810;9.204;2023-04-04T01:10:41;99295.91;;;-0.83;80.21
13765;BME280;6953;48.810;9.204;2023-04-04T01:13:06;99367.19;;;-0.49;80.40
13765;BME280;6953;48.810;9.204;2023-04-04T01:15:32;99630.44;;;0.76;80.89
13765;BME280;6953;48.810;9.204;2023-04-04T01:17:59;99614.94;;;0.84;81.52
13765;BME280;6953;48.810;9.204;2023-04-04T01:20:28;99587.41;;;0.89;81.21
13765;BME280;6953;48.810;9.204;2023-04-04T01:22:55;99510.84;;;0.50;80.08
13765;BME280;6953;48.810;9.204;2023-04-04T01:25:30;99596.00;;;0.91;79.72
13765;BME280;6953;48.810;9.204;2023-04-04T01:27:57;99546.97;;;0.70;79.42
13765;BME280;6953;48.810;9.204;2023-04-04T01:30:23;99590.84;;;0.98;79.40
13765;BME280;6953;48.810;9.204;2023-04-04T01:33:09;99485.88;;;0.45;79.98
13765;BME280;6953;48.810;9.204;2023-04-04T01:41:26;99583.09;;;0.91;80.89
13765;BME280;6953;48.810;9.204;2023-04-04T01:43:56;99587.41;;;0.89;81.29
13765;BME280;6953;48.810;9.204;2023-04-04T01:46:22;99571.94;;;0.77;81.03
13765;BME280;6953;48.810;9.204;2023-04-04T01:48:47;99559.84;;;0.74;81.42
13765;BME280;6953;48.810;9.204;2023-04-04T01:51:13;99586.56;;;0.85;81.36
13765;BME280;6953;48.810;9.204;2023-04-04T01:53:38;99575.34;;;0.74;81.83
13765;BME280;6953;48.810;9.204;2023-04-04T01:56:04;99582.25;;;0.86;82.06
13765;BME280;6953;48.810;9.204;2023-04-04T01:58:29;99318.22;;;-0.67;82.24
13765;BME280;6953;48.810;9.204;2023-04-04T02:00:56;99558.16;;;0.70;82.42
13765;BME280;6953;48.810;9.204;2023-04-04T02:03:21;99557.28;;;0.64;82.42
13765;BME280;6953;48.810;9.204;2023-04-04T02:05:47;99572.81;;;0.71;82.84
13765;BME280;6953;48.810;9.204;2023-04-04T02:08:12;99533.19;;;0.42;82.68
13765;BME280;6953;48.810;9.204;2023-04-04T02:10:39;99573.66;;;0.67;83.38
13765;BME280;6953;48.810;9.204;2023-04-04T02:13:05;99373.19;;;-0.62;83.38
13765;BME280;6953;48.810;9.204;2023-04-04T02:15:31;99570.22;;;0.65;82.97
13765;BME280;6953;48.810;9.204;2023-04-04T02:17:57;99573.66;;;0.64;82.89
13765;BME280;6953;48.810;9.204;2023-04-04T02:20:22;99571.94;;;0.66;83.07
13765;BME280;6953;48.810;9.204;2023-04-04T02:22:52;99572.78;;;0.73;82.46
13765;BME280;6953;48.810;9.204;2023-04-04T02:25:18;99420.50;;;-0.27;81.88
13765;BME280;6953;48.810;9.204;2023-04-04T02:27:43;99559.00;;;0.65;82.10
13765;BME280;6953;48.810;9.204;2023-04-04T02:30:09;99608.06;;;0.72;82.09
13765;BME280;6953;48.810;9.204;2023-04-04T02:32:35;99576.25;;;0.70;81.83
13765;BME280;6953;48.810;9.204;2023-04-04T02:35:02;99573.66;;;0.70;81.89
13765;BME280;6953;48.810;9.204;2023-04-04T02:37:28;99529.75;;;0.42;81.71
13765;BME280;6953;48.810;9.204;2023-04-04T02:39:54;99271.81;;;-1.09;81.99
13765;BME280;6953;48.810;9.204;2023-04-04T02:42:20;99573.66;;;0.67;81.49
13765;BME280;6953;48.810;9.204;2023-04-04T02:44:45;99614.94;;;0.64;82.39
13765;BME280;6953;48.810;9.204;2023-04-04T02:47:10;99565.88;;;0.52;82.06
13765;BME280;6953;48.810;9.204;2023-04-04T02:49:36;99588.25;;;0.56;82.36
13765;BME280;6953;48.810;9.204;2023-04-04T02:52:01;99579.66;;;0.56;82.46
13765;BME280;6953;48.810;9.204;2023-04-04T02:54:26;99572.78;;;0.55;82.55
13765;BME280;6953;48.810;9.204;2023-04-04T02:56:52;99519.41;;;0.22;82.62
13765;BME280;6953;48.810;9.204;2023-04-04T02:59:17;99550.41;;;0.43;82.45
13765;BME280;6953;48.810;9.204;2023-04-04T03:01:43;99435.97;;;-0.27;82.80
13765;BME280;6953;48.810;9.204;2023-04-04T03:04:08;99242.56;;;-1.44;82.64
13765;BME280;6953;48.810;9.204;2023-04-04T03:06:34;99466.06;;;-0.13;83.30
13765;BME280;6953;48.810;9.204;2023-04-04T03:08:59;99556.41;;;0.35;83.58
13765;BME280;6953;48.810;9.204;2023-04-04T03:11:25;99485.81;;;-0.24;83.60
13765;BME280;6953;48.810;9.204;2023-04-04T03:13:51;99590.84;;;0.40;83.27
13765;BME280;6953;48.810;9.204;2023-04-04T03:16:16;99569.31;;;0.39;83.76
13765;BME280;6953;48.810;9.204;2023-04-04T03:18:43;99609.75;;;0.33;84.34
13765;BME280;6953;48.810;9.204;2023-04-04T03:21:09;99252.81;;;-1.56;83.87
13765;BME280;6953;48.810;9.204;2023-04-04T03:23:34;99245.94;;;-1.64;84.48
13765;BME280;6953;48.810;9.204;2023-04-04T03:26:00;99566.69;;;0.12;84.80
13765;BME280;6953;48.810;9.204;2023-04-04T03:28:26;99238.16;;;-1.78;84.64
13765;BME280;6953;48.810;9.204;2023-04-04T03:30:51;99205.53;;;-1.97;84.44
13765;BME280;6953;48.810;9.204;2023-04-04T03:33:17;99318.94;;;-1.34;84.66
13765;BME280;6953;48.810;9.204;2023-04-04T03:35:43;99522.78;;;-0.22;85.07
13765;BME280;6953;48.810;9.204;2023-04-04T03:38:09;99558.06;;;-0.02;85.83
13765;BME280;6953;48.810;9.204;2023-04-04T03:40:35;99355.00;;;-1.23;85.00
13765;BME280;6953;48.810;9.204;2023-04-04T03:43:00;99565.78;;;-0.07;85.73
13765;BME280;6953;48.810;9.204;2023-04-04T03:45:33;99385.06;;;-1.09;85.93
13765;BME280;6953;48.810;9.204;2023-04-04T03:48:00;99201.09;;;-2.21;85.95
13765;BME280;6953;48.810;9.204;2023-04-04T03:50:25;99286.97;;;-1.84;85.83
13765;BME280;6953;48.810;9.204;2023-04-04T03:52:51;99567.47;;;-0.18;85.94
13765;BME280;6953;48.810;9.204;2023-04-04T03:55:16;99567.47;;;-0.23;86.24
13765;BME280;6953;48.810;9.204;2023-04-04T03:57:42;99553.63;;;-0.37;86.15
13765;BME280;6953;48.810;9.204;2023-04-04T04:00:07;99551.91;;;-0.38;86.25
13765;BME280;6953;48.810;9.204;2023-04-04T04:02:33;99497.66;;;-0.75;86.75
13765;BME280;6953;48.810;9.204;2023-04-04T04:04:58;99186.38;;;-2.55;86.46
13765;BME280;6953;48.810;9.204;2023-04-04T04:07:23;99571.69;;;-0.38;86.51
13765;BME280;6953;48.810;9.204;2023-04-04T04:09:49;99561.34;;;-0.44;87.37
13765;BME280;6953;48.810;9.204;2023-04-04T04:12:15;99572.53;;;-0.44;87.26
13765;BME280;6953;48.810;9.204;2023-04-04T04:14:40;99455.41;;;-1.14;87.32
13765;BME280;6953;48.810;9.204;2023-04-04T04:17:06;99294.56;;;-2.06;87.84
13765;BME280;6953;48.810;9.204;2023-04-04T04:19:31;99612.84;;;-0.50;88.23
13765;BME280;6953;48.810;9.204;2023-04-04T04:21:57;99528.53;;;-0.81;88.65
13765;BME280;6953;48.810;9.204;2023-04-04T04:24:22;99256.66;;;-2.37;88.59
13765;BME280;6953;48.810;9.204;2023-04-04T04:26:47;99292.69;;;-2.31;88.61
13765;BME280;6953;48.810;9.204;2023-04-04T04:29:13;99574.19;;;-0.53;89.45
13765;BME280;6953;48.810;9.204;2023-04-04T04:31:38;99525.94;;;-0.80;89.65
13765;BME280;6953;48.810;9.204;2023-04-04T04:34:05;99564.75;;;-0.53;89.30
13765;BME280;6953;48.810;9.204;2023-04-04T04:36:31;99183.66;;;-2.75;89.27
13765;BME280;6953;48.810;9.204;2023-04-04T04:38:57;99243.81;;;-2.37;89.38
13765;BME280;6953;48.810;9.204;2023-04-04T04:41:22;99256.69;;;-2.32;89.72
13765;BME280;6953;48.810;9.204;2023-04-04T04:43:47;99550.13;;;-0.57;89.46
13765;BME280;6953;48.810;9.204;2023-04-04T04:46:13;99585.34;;;-0.53;89.57
13765;BME280;6953;48.810;9.204;2023-04-04T04:48:38;99538.78;;;-0.92;89.14
13765;BME280;6953;48.810;9.204;2023-04-04T04:51:04;99254.13;;;-2.34;89.09
13765;BME280;6953;48.810;9.204;2023-04-04T04:53:30;99424.38;;;-1.38;89.13
13765;BME280;6953;48.810;9.204;2023-04-04T04:55:55;99550.91;;;-0.71;89.20
13765;BME280;6953;48.810;9.204;2023-04-04T04:58:21;99590.50;;;-0.53;89.93
13765;BME280;6953;48.810;9.204;2023-04-04T05:00:48;99494.09;;;-1.02;90.06
13765;BME280;6953;48.810;9.204;2023-04-04T05:03:13;99581.09;;;-0.52;89.91
13765;BME280;6953;48.810;9.204;2023-04-04T05:05:38;99569.84;;;-0.60;90.00
13765;BME280;6953;48.810;9.204;2023-04-04T05:08:04;99614.56;;;-0.51;89.93
13765;BME280;6953;48.810;9.204;2023-04-04T05:10:30;99586.22;;;-0.51;90.07
13765;BME280;6953;48.810;9.204;2023-04-04T05:12:55;99587.06;;;-0.50;90.01
13765;BME280;6953;48.810;9.204;2023-04-04T05:15:21;99295.34;;;-2.16;89.60
13765;BME280;6953;48.810;9.204;2023-04-04T05:17:46;99463.13;;;-1.19;89.58
13765;BME280;6953;48.810;9.204;2023-04-04T05:20:12;99528.50;;;-0.84;89.92
13765;BME280;6953;48.810;9.204;2023-04-04T05:22:44;99345.31;;;-1.74;89.96
13765;BME280;6953;48.810;9.204;2023-04-04T05:25:10;99582.88;;;-0.33;89.92
13765;BME280;6953;48.810;9.204;2023-04-04T05:27:36;99525.16;;;-0.70;89.31
13765;BME280;6953;48.810;9.204;2023-04-04T05:30:02;99276.56;;;-2.08;89.08
13765;BME280;6953;48.810;9.204;2023-04-04T05:32:27;99576.84;;;-0.35;89.76
13765;BME280;6953;48.810;9.204;2023-04-04T05:34:52;99358.28;;;-1.53;89.34
13765;BME280;6953;48.810;9.204;2023-04-04T05:37:18;99574.34;;;-0.17;89.60
13765;BME280;6953;48.810;9.204;2023-04-04T05:39:43;99373.81;;;-1.32;88.92
13765;BME280;6953;48.810;9.204;2023-04-04T05:42:08;99638.03;;;0.10;89.45
13765;BME280;6953;48.810;9.204;2023-04-04T05:44:34;99295.69;;;-1.55;88.73
13765;BME280;6953;48.810;9.204;2023-04-04T05:47:01;99595.13;;;0.35;88.63
13765;BME280;6953;48.810;9.204;2023-04-04T05:49:26;99456.53;;;-0.53;87.64
13765;BME280;6953;48.810;9.204;2023-04-04T05:51:52;99599.44;;;0.58;87.28
13765;BME280;6953;48.810;9.204;2023-04-04T05:54:20;99602.91;;;0.71;86.60
13765;BME280;6953;48.810;9.204;2023-04-04T05:56:46;99548.69;;;0.56;86.08
13765;BME280;6953;48.810;9.204;2023-04-04T05:59:12;99604.63;;;0.97;85.50
13765;BME280;6953;48.810;9.204;2023-04-04T06:01:37;99316.53;;;-0.55;84.94
13765;BME280;6953;48.810;9.204;2023-04-04T06:04:03;99495.34;;;0.68;83.33
13765;BME280;6953;48.810;9.204;2023-04-04T06:06:28;99226.25;;;0.08;81.42
13765;BME280;6953;48.810;9.204;2023-04-04T06:08:53;99348.47;;;2.60;72.98
13765;BME280;6953;48.810;9.204;2023-04-04T06:11:19;99370.88;;;4.43;64.29
13765;BME280;6953;48.810;9.204;2023-04-04T06:13:47;99619.25;;;7.18;55.97
13765;BME280;6953;48.810;9.204;2023-04-04T06:16:12;99616.53;;;8.19;50.59
13765;BME280;6953;48.810;9.204;2023-04-04T06:18:37;99582.06;;;8.90;46.91
13765;BME280;6953;48.810;9.204;2023-04-04T06:21:03;99573.44;;;9.38;45.73
13765;BME280;6953;48.810;9.204;2023-04-04T06:23:28;99527.16;;;9.88;42.20
13765;BME280;6953;48.810;9.204;2023-04-04T06:25:53;99393.50;;;9.88;40.22
13765;BME280;6953;48.810;9.204;2023-04-04T06:28:19;99585.28;;;11.32;39.17
13765;BME280;6953;48.810;9.204;2023-04-04T06:30:44;99610.81;;;11.07;39.86
13765;BME280;6953;48.810;9.204;2023-04-04T06:33:10;99605.97;;;10.08;40.39
13765;BME280;6953;48.810;9.204;2023-04-04T06:35:35;99595.59;;;9.04;43.34
13765;BME280;6953;48.810;9.204;2023-04-04T06:38:01;99566.09;;;9.25;42.00
13765;BME280;6953;48.810;9.204;2023-04-04T06:40:28;99623.88;;;10.65;38.47
13765;BME280;6953;48.810;9.204;2023-04-04T06:42:53;99611.63;;;11.71;35.89
13765;BME280;6953;48.810;9.204;2023-04-04T06:45:22;99567.25;;;12.41;33.19
13765;BME280;6953;48.810;9.204;2023-04-04T06:47:47;99594.38;;;13.33;31.29
13765;BME280;6953;48.810;9.204;2023-04-04T06:50:14;99587.69;;;13.77;30.22
13765;BME280;6953;48.810;9.204;2023-04-04T06:52:40;99525.88;;;13.82;30.41
13765;BME280;6953;48.810;9.204;2023-04-04T06:55:05;99604.00;;;15.13;28.15
13765;BME280;6953;48.810;9.204;2023-04-04T06:57:31;99515.47;;;15.20;27.44
13765;BME280;6953;48.810;9.204;2023-04-04T06:59:57;99599.03;;;16.40;26.26
13765;BME280;6953;48.810;9.204;2023-04-04T07:02:25;99437.66;;;15.53;24.91
13765;BME280;6953;48.810;9.204;2023-04-04T07:04:50;99636.84;;;16.69;25.21
13765;BME280;6953;48.810;9.204;2023-04-04T07:07:16;99604.72;;;17.02;24.93
13765;BME280;6953;48.810;9.204;2023-04-04T07:09:41;99599.72;;;17.24;23.97
13765;BME280;6953;48.810;9.204;2023-04-04T07:12:06;99529.13;;;17.09;23.90
13765;BME280;6953;48.810;9.204;2023-04-04T07:14:32;99604.22;;;18.01;22.82
13765;BME280;6953;48.810;9.204;2023-04-04T07:16:57;99613.97;;;18.00;22.92
13765;BME280;6953;48.810;9.204;2023-04-04T07:19:22;99526.00;;;17.68;22.53
13765;BME280;6953;48.810;9.204;2023-04-04T07:21:52;99541.88;;;18.44;22.11
13765;BME280;6953;48.810;9.204;2023-04-04T07:24:18;99641.91;;;19.54;21.16
13765;BME280;6953;48.810;9.204;2023-04-04T07:26:43;99632.00;;;19.20;20.84
13765;BME280;6953;48.810;9.204;2023-04-04T07:29:09;99551.06;;;18.63;20.71
13765;BME280;6953;48.810;9.204;2023-04-04T07:31:35;99632.13;;;18.33;21.16
13765;BME280;6953;48.810;9.204;2023-04-04T07:34:00;99477.31;;;17.30;21.29
13765;BME280;6953;48.810;9.204;2023-04-04T07:36:26;99614.31;;;17.96;21.20
13765;BME280;6953;48.810;9.204;2023-04-04T07:38:51;99553.47;;;17.54;21.55
13765;BME280;6953;48.810;9.204;2023-04-04T07:41:17;99479.34;;;17.39;21.53
13765;BME280;6953;48.810;9.204;2023-04-04T07:43:42;99411.13;;;17.41;20.75
13765;BME280;6953;48.810;9.204;2023-04-04T07:46:07;99439.59;;;17.76;20.68
13765;BME280;6953;48.810;9.204;2023-04-04T07:48:33;99544.22;;;18.84;20.40
13765;BME280;6953;48.810;9.204;2023-04-04T07:51:01;99621.09;;;19.82;19.41
13765;BME280;6953;48.810;9.204;2023-04-04T07:53:27;99567.94;;;19.23;19.27
13765;BME280;6953;48.810;9.204;2023-04-04T07:55:52;99627.31;;;19.70;19.29
13765;BME280;6953;48.810;9.204;2023-04-04T07:58:17;99629.63;;;20.32;19.00
13765;BME280;6953;48.810;9.204;2023-04-04T08:00:43;99446.84;;;19.85;18.35
13765;BME280;6953;48.810;9.204;2023-04-04T08:03:08;99630.56;;;20.88;17.90
13765;BME280;6953;48.810;9.204;2023-04-04T08:05:34;99635.47;;;20.59;18.07
13765;BME280;6953;48.810;9.204;2023-04-04T08:08:02;99630.63;;;20.53;18.21
13765;BME280;6953;48.810;9.204;2023-04-04T08:10:27;99632.78;;;20.48;18.14
13765;BME280;6953;48.810;9.204;2023-04-04T08:12:53;99430.19;;;20.15;18.28
13765;BME280;6953;48.810;9.204;2023-04-04T08:15:18;99639.00;;;21.25;17.62
13765;BME280;6953;48.810;9.204;2023-04-04T08:17:43;99418.16;;;19.77;17.82
13765;BME280;6953;48.810;9.204;2023-04-04T08:20:09;99628.34;;;21.03;18.03
13765;BME280;6953;48.810;9.204;2023-04-04T08:22:35;99659.69;;;21.55;18.17
13765;BME280;6953;48.810;9.204;2023-04-04T08:25:01;99632.13;;;21.65;17.44
13765;BME280;6953;48.810;9.204;2023-04-04T08:27:27;99432.75;;;20.59;17.41
13765;BME280;6953;48.810;9.204;2023-04-04T08:29:52;99630.19;;;21.67;17.45
13765;BME280;6953;48.810;9.204;2023-04-04T08:32:18;99635.63;;;21.97;17.32
13765;BME280;6953;48.810;9.204;2023-04-04T08:34:43;99635.16;;;22.74;16.67
13765;BME280;6953;48.810;9.204;2023-04-04T08:37:08;99639.91;;;22.61;16.71
13765;BME280;6953;48.810;9.204;2023-04-04T08:39:34;99642.44;;;22.92;16.24
13765;BME280;6953;48.810;9.204;2023-04-04T08:42:02;99643.53;;;23.10;16.35
13765;BME280;6953;48.810;9.204;2023-04-04T08:44:30;99643.84;;;22.87;16.11
13765;BME280;6953;48.810;9.204;2023-04-04T08:46:58;99623.44;;;23.34;15.98
13765;BME280;6953;48.810;9.204;2023-04-04T08:49:25;99660.31;;;23.61;15.65
13765;BME280;6953;48.810;9.204;2023-04-04T08:51:52;99641.19;;;23.94;15.57
13765;BME280;6953;48.810;9.204;2023-04-04T08:54:20;99452.13;;;23.14;16.05
13765;BME280;6953;48.810;9.204;2023-04-04T08:56:47;99637.47;;;24.97;15.05
13765;BME280;6953;48.810;9.204;2023-04-04T08:59:12;99612.41;;;25.77;14.10
13765;BME280;6953;48.810;9.204;2023-04-04T09:01:40;99485.19;;;25.25;13.73
13765;BME280;6953;48.810;9.204;2023-04-04T09:04:06;99596.84;;;25.54;13.65
13765;BME280;6953;48.810;9.204;2023-04-04T09:06:33;99566.81;;;25.41;13.58
13765;BME280;6953;48.810;9.204;2023-04-04T09:08:59;99657.16;;;24.79;13.89
13765;BME280;6953;48.810;9.204;2023-04-04T09:11:26;99656.63;;;24.75;13.83
13765;BME280;6953;48.810;9.204;2023-04-04T09:13:56;99632.63;;;25.37;13.99
13765;BME280;6953;48.810;9.204;2023-04-04T09:16:22;99649.31;;;24.58;14.10
13765;BME280;6953;48.810;9.204;2023-04-04T09:18:48;99658.13;;;24.87;13.65
13765;BME280;6953;48.810;9.204;2023-04-04T09:21:13;99486.72;;;24.83;13.22
13765;BME280;6953;48.810;9.204;2023-04-04T09:23:38;99511.22;;;25.41;12.91
13765;BME280;6953;48.810;9.204;2023-04-04T09:26:04;99659.56;;;26.84;12.51
13765;BME280;6953;48.810;9.204;2023-04-04T09:28:31;99658.19;;;27.31;12.14
13765;BME280;6953;48.810;9.204;2023-04-04T09:30:59;99658.75;;;27.09;12.34
13765;BME280;6953;48.810;9.204;2023-04-04T09:33:26;99655.34;;;27.98;12.01
13765;BME280;6953;48.810;9.204;2023-04-04T09:35:57;99647.41;;;28.68;11.28
13765;BME280;6953;48.810;9.204;2023-04-04T09:38:24;99507.66;;;27.27;11.67
13765;BME280;6953;48.810;9.204;2023-04-04T09:40:50;99653.56;;;27.65;11.71
13765;BME280;6953;48.810;9.204;2023-04-04T09:43:17;99661.72;;;26.55;12.61
13765;BME280;6953;48.810;9.204;2023-04-04T09:45:44;99664.34;;;26.90;13.18
13765;BME280;6953;48.810;9.204;2023-04-04T09:48:10;99572.72;;;27.32;12.49
13765;BME280;6953;48.810;9.204;2023-04-04T09:50:37;99663.97;;;28.01;12.15
13765;BME280;6953;48.810;9.204;2023-04-04T09:53:15;99477.75;;;27.69;11.16
13765;BME280;6953;48.810;9.204;2023-04-04T09:55:41;99647.25;;;28.22;11.57
13765;BME280;6953;48.810;9.204;2023-04-04T09:58:17;99644.84;;;27.71;11.54
13765;BME280;6953;48.810;9.204;2023-04-04T10:00:46;99653.34;;;28.08;11.51
13765;BME280;6953;48.810;9.204;2023-04-04T10:03:16;99643.84;;;27.96;11.72
13765;BME280;6953;48.810;9.204;2023-04-04T10:05:44;99627.88;;;28.34;11.67
13765;BME280;6953;48.810;9.204;2023-04-04T10:08:16;99646.41;;;28.77;11.53
13765;BME280;6953;48.810;9.204;2023-04-04T10:10:47;99629.53;;;28.75;11.16
13765;BME280;6953;48.810;9.204;2023-04-04T10:13:12;99619.75;;;29.20;11.15
13765;BME280;6953;48.810;9.204;2023-04-04T10:15:38;99660.94;;;29.76;11.04
13765;BME280;6953;48.810;9.204;2023-04-04T10:18:04;99645.16;;;29.58;11.37
13765;BME280;6953;48.810;9.204;2023-04-04T10:20:32;99634.06;;;29.45;10.83
13765;BME280;6953;48.810;9.204;2023-04-04T10:22:58;99642.78;;;29.55;10.98
13765;BME280;6953;48.810;9.204;2023-04-04T10:25:24;99641.44;;;30.34;9.97
13765;BME280;6953;48.810;9.204;2023-04-04T10:27:49;99624.50;;;28.56;11.09
13765;BME280;6953;48.810;9.204;2023-04-04T10:30:15;99577.00;;;28.69;11.35
13765;BME280;6953;48.810;9.204;2023-04-04T10:33:00;99632.06;;;29.31;10.66
13765;BME280;6953;48.810;9.204;2023-04-04T10:35:31;99411.03;;;26.41;12.28
13765;BME280;6953;48.810;9.204;2023-04-04T10:38:00;99621.31;;;28.29;11.69
13765;BME280;6953;48.810;9.204;2023-04-04T10:40:30;99615.38;;;28.49;11.36
13765;BME280;6953;48.810;9.204;2023-04-04T10:43:01;99587.50;;;28.72;10.81
13765;BME280;6953;48.810;9.204;2023-04-04T10:45:28;99619.47;;;29.54;10.94
13765;BME280;6953;48.810;9.204;2023-04-04T10:47:55;99616.72;;;30.14;10.78
13765;BME280;6953;48.810;9.204;2023-04-04T10:50:21;99629.22;;;30.15;10.29
13765;BME280;6953;48.810;9.204;2023-04-04T10:52:47;99495.28;;;29.06;10.63
13765;BME280;6953;48.810;9.204;2023-04-04T10:55:14;99632.41;;;29.96;10.19
13765;BME280;6953;48.810;9.204;2023-04-04T10:57:48;99621.09;;;30.15;10.83
13765;BME280;6953;48.810;9.204;2023-04-04T11:00:18;99447.78;;;29.56;10.05
13765;BME280;6953;48.810;9.204;2023-04-04T11:05:35;99636.63;;;29.68;10.29
13765;BME280;6953;48.810;9.204;2023-04-04T11:08:22;99547.03;;;29.64;10.27
13765;BME280;6953;48.810;9.204;2023-04-04T11:10:53;99535.44;;;29.25;10.46
13765;BME280;6953;48.810;9.204;2023-04-04T11:13:25;99607.09;;;30.12;10.30
13765;BME280;6953;48.810;9.204;2023-04-04T11:15:57;99599.13;;;30.84;9.89
13765;BME280;6953;48.810;9.204;2023-04-04T11:18:47;99610.84;;;31.28;9.76
13765;BME280;6953;48.810;9.204;2023-04-04T11:21:20;99596.28;;;31.85;9.18
13765;BME280;6953;48.810;9.204;2023-04-04T11:28:55;99605.25;;;31.65;9.20
13765;BME280;6953;48.810;9.204;2023-04-04T11:31:22;99602.13;;;31.18;9.35
13765;BME280;6953;48.810;9.204;2023-04-04T11:34:08;99559.66;;;30.96;9.00
13765;BME280;6953;48.810;9.204;2023-04-04T11:44:22;99587.63;;;31.11;9.44
13765;BME280;6953;48.810;9.204;2023-04-04T11:46:54;99598.66;;;30.07;9.95
13765;BME280;6953;48.810;9.204;2023-04-04T11:49:24;99584.81;;;30.24;10.24
13765;BME280;6953;48.810;9.204;2023-04-04T11:51:49;99599.31;;;30.97;9.84
13765;BME280;6953;48.810;9.204;2023-04-04T11:54:17;99467.84;;;31.07;9.84
13765;BME280;6953;48.810;9.204;2023-04-04T11:56:43;99548.81;;;32.02;9.44
13765;BME280;6953;48.810;9.204;2023-04-04T11:59:16;99555.94;;;31.82;9.12
13765;BME280;6953;48.810;9.204;2023-04-04T12:01:42;99353.06;;;30.07;9.44
13765;BME280;6953;48.810;9.204;2023-04-04T12:04:09;99573.47;;;32.21;9.40
13765;BME280;6953;48.810;9.204;2023-04-04T12:06:34;99548.91;;;32.91;9.29
13765;BME280;6953;48.810;9.204;2023-04-04T12:09:04;99574.44;;;34.09;8.51
13765;BME280;6953;48.810;9.204;2023-04-04T12:11:32;99518.06;;;33.77;8.26
13765;BME280;6953;48.810;9.204;2023-04-04T12:13:59;99368.53;;;32.90;8.61
13765;BME280;6953;48.810;9.204;2023-04-04T12:16:24;99394.88;;;32.09;8.74
13765;BME280;6953;48.810;9.204;2023-04-04T12:18:50;99576.03;;;32.50;9.21
13765;BME280;6953;48.810;9.204;2023-04-04T12:21:16;99357.63;;;30.85;9.80
13765;BME280;6953;48.810;9.204;2023-04-04T12:23:41;99526.84;;;31.76;9.36
13765;BME280;6953;48.810;9.204;2023-04-04T12:26:07;99556.28;;;32.42;9.33
13765;BME280;6953;48.810;9.204;2023-04-04T12:28:34;99577.88;;;31.31;9.56
13765;BME280;6953;48.810;9.204;2023-04-04T12:31:02;99521.34;;;29.60;10.80
13765;BME280;6953;48.810;9.204;2023-04-04T12:33:33;99549.91;;;29.84;10.70
13765;BME280;6953;48.810;9.204;2023-04-04T12:35:59;99560.31;;;30.55;9.99
13765;BME280;6953;48.810;9.204;2023-04-04T12:38:27;99334.41;;;29.83;9.95
13765;BME280;6953;48.810;9.204;2023-04-04T12:40:54;99516.53;;;29.17;10.33
13765;BME280;6953;48.810;9.204;2023-04-04T12:43:20;99541.13;;;29.60;11.21
13765;BME280;6953;48.810;9.204;2023-04-04T12:45:49;99481.09;;;30.01;10.45
13765;BME280;6953;48.810;9.204;2023-04-04T12:48:15;99536.69;;;30.12;10.36
13765;BME280;6953;48.810;9.204;2023-04-04T12:53:13;99507.03;;;26.25;12.47
13765;BME280;6953;48.810;9.204;2023-04-04T12:55:44;99492.16;;;26.38;12.45
13765;BME280;6953;48.810;9.204;2023-04-04T12:58:10;99515.41;;;24.82;13.31
13765;BME280;6953;48.810;9.204;2023-04-04T13:00:37;99528.03;;;25.78;13.55
13765;BME280;6953;48.810;9.204;2023-04-04T13:03:03;99419.84;;;26.43;12.33
13765;BME280;6953;48.810;9.204;2023-04-04T13:05:32;99276.00;;;26.61;11.83
13765;BME280;6953;48.810;9.204;2023-04-04T13:08:07;99498.94;;;28.74;11.32
13765;BME280;6953;48.810;9.204;2023-04-04T13:13:37;99299.22;;;28.65;11.17
13765;BME280;6953;48.810;9.204;2023-04-04T13:16:08;99512.53;;;29.66;10.88
13765;BME280;6953;48.810;9.204;2023-04-04T13:18:39;99501.94;;;28.95;10.85
13765;BME280;6953;48.810;9.204;2023-04-04T13:21:07;99448.97;;;28.40;10.95
13765;BME280;6953;48.810;9.204;2023-04-04T13:23:34;99497.19;;;28.51;11.74
13765;BME280;6953;48.810;9.204;2023-04-04T13:26:01;99486.34;;;29.05;11.01
13765;BME280;6953;48.810;9.204;2023-04-04T13:28:28;99483.22;;;29.47;10.47
13765;BME280;6953;48.810;9.204;2023-04-04T13:30:54;99398.47;;;28.49;11.03
13765;BME280;6953;48.810;9.204;2023-04-04T13:33:20;99480.44;;;28.63;11.07
13765;BME280;6953;48.810;9.204;2023-04-04T13:35:47;99274.41;;;27.62;10.97
13765;BME280;6953;48.810;9.204;2023-04-04T13:38:14;99421.91;;;28.48;11.27